Time;durP1;ratioP1;P1;durP2;ratioP2;P2;SDS_P1;SDS_P2;PMS_P1;PMS_P2;Temp;Humidity;BMP_temperature;BMP_pressure;BME280_temperature;BME280_humidity;BME280_pressure;Samples;Min_cycle;Max_cycle;Signal;HPM_P1;HPM_P2
2022/10/24 00:02:16;;;;;;;;;;;;;;;13.79;68.16;95967.06;5115055;28;1217;-65
2022/10/24 00:04:43;;;;;;;;;;;;;;;13.70;68.47;95966.19;5115148;28;1163;-64
2022/10/24 00:07:09;;;;;;;;;;;;;;;13.68;68.23;95965.50;5114909;28;1894;-65
2022/10/24 00:09:35;;;;;;;;;;;;;;;13.66;68.51;95967.53;5115050;28;1065;-65
2022/10/24 00:12:02;;;;;;;;;;;;;;;13.60;68.66;95970.81;5114996;28;1012;-65
2022/10/24 00:14:29;;;;;;;;;;;;;;;13.56;68.57;95969.47;5114870;28;1236;-65
2022/10/24 00:16:55;;;;;;;;;;;;;;;13.53;68.39;95967.94;5115085;28;1031;-65
2022/10/24 00:19:21;;;;;;;;;;;;;;;13.51;68.71;95961.03;5114783;28;1109;-65
2022/10/24 00:21:47;;;;;;;;;;;;;;;13.48;68.54;95960.34;5114881;28;1043;-65
2022/10/24 00:24:14;;;;;;;;;;;;;;;13.44;68.37;95963.53;5114714;28;973;-65
2022/10/24 00:26:40;;;;;;;;;;;;;;;13.38;68.34;95956.94;5114585;28;1987;-65
2022/10/24 00:29:06;;;;;;;;;;;;;;;13.26;68.57;95964.41;5114716;28;1964;-65
2022/10/24 00:31:32;;;;;;;;;;;;;;;13.04;68.97;95960.38;5114621;28;1053;-65
2022/10/24 00:33:59;;;;;;;;;;;;;;;12.91;69.48;95964.47;5114728;28;1025;-65
2022/10/24 00:36:26;;;;;;;;;;;;;;;12.95;69.65;95964.00;5114538;28;1067;-65
2022/10/24 00:38:52;;;;;;;;;;;;;;;12.99;69.41;95953.78;5114615;27;1023;-65
2022/10/24 00:41:20;;;;;;;;;;;;;;;12.94;69.03;95962.31;5114364;28;1071;-65
2022/10/24 00:43:46;;;;;;;;;;;;;;;12.71;69.78;95964.66;5114653;28;1024;-65
2022/10/24 00:46:14;;;;;;;;;;;;;;;12.75;69.64;95957.97;5114352;28;1906;-65
2022/10/24 00:48:47;;;;;;;;;;;;;;;12.78;69.45;95954.13;5114328;28;1123;-65
2022/10/24 00:51:13;;;;;;;;;;;;;;;12.83;69.45;95959.88;5101432;28;1311;-65
2022/10/24 00:53:41;;;;;;;;;;;;;;;12.83;69.25;95960.72;5093726;28;1104;-65
2022/10/24 00:56:08;;;;;;;;;;;;;;;12.85;69.05;95957.88;5093797;28;1211;-65
2022/10/24 00:58:35;;;;;;;;;;;;;;;12.75;69.48;95957.13;5094004;28;1093;-65
2022/10/24 01:01:02;;;;;;;;;;;;;;;12.70;69.14;95950.38;5093950;28;952;-65
2022/10/24 01:03:28;;;;;;;;;;;;;;;12.64;69.48;95950.16;5093694;28;1060;-65
2022/10/24 01:06:04;;;;;;;;;;;;;;;12.66;69.45;95954.38;5093629;28;1983;-65
2022/10/24 01:08:37;;;;;;;;;;;;;;;12.73;69.36;95954.59;5093536;28;1069;-65
2022/10/24 01:11:09;;;;;;;;;;;;;;;12.73;69.12;95948.38;5093625;28;1101;-65
2022/10/24 01:13:53;;;;;;;;;;;;;;;12.67;69.15;95955.22;5093507;28;1136;-65
2022/10/24 01:16:19;;;;;;;;;;;;;;;12.58;69.22;95954.31;5093481;28;1124;-65
2022/10/24 01:18:52;;;;;;;;;;;;;;;12.46;69.48;95953.69;5093437;28;1056;-65
2022/10/24 01:21:38;;;;;;;;;;;;;;;12.39;69.45;95949.94;5093633;28;1008;-65
2022/10/24 01:24:04;;;;;;;;;;;;;;;12.40;70.05;95950.78;5093398;28;1156;-65
2022/10/24 01:26:48;;;;;;;;;;;;;;;12.48;69.90;95940.13;5093410;28;1910;-65
2022/10/24 01:29:33;;;;;;;;;;;;;;;12.48;69.69;95950.84;5093216;28;1113;-65
2022/10/24 01:32:05;;;;;;;;;;;;;;;12.39;69.81;95951.78;5093308;28;1308;-65
2022/10/24 01:34:36;;;;;;;;;;;;;;;12.23;70.51;95952.44;5093472;28;1035;-65
2022/10/24 01:37:08;;;;;;;;;;;;;;;12.18;70.68;95954.72;5093526;28;964;-65
2022/10/24 01:39:38;;;;;;;;;;;;;;;12.32;70.53;95946.19;5093340;28;984;-65
2022/10/24 01:42:05;;;;;;;;;;;;;;;12.40;70.09;95956.13;5093338;28;1163;-65
2022/10/24 01:44:35;;;;;;;;;;;;;;;12.43;70.01;95953.16;5093202;28;1103;-65
2022/10/24 01:47:03;;;;;;;;;;;;;;;12.46;70.02;95947.47;5093124;28;1998;-65
2022/10/24 01:49:32;;;;;;;;;;;;;;;12.45;69.75;95949.31;5093152;28;1131;-65
2022/10/24 01:52:01;;;;;;;;;;;;;;;12.43;69.73;95955.84;5112076;28;1323;-65
2022/10/24 01:54:28;;;;;;;;;;;;;;;12.40;69.57;95950.78;5113098;28;1143;-65
2022/10/24 01:56:54;;;;;;;;;;;;;;;12.02;70.44;95948.19;5113469;28;1112;-65
2022/10/24 01:59:29;;;;;;;;;;;;;;;11.84;71.43;95947.31;5113393;28;1057;-65
2022/10/24 02:01:59;;;;;;;;;;;;;;;11.86;71.34;95951.50;5113704;28;1001;-65
2022/10/24 02:04:27;;;;;;;;;;;;;;;11.96;71.33;95954.16;5117560;28;996;-65
2022/10/24 02:06:55;;;;;;;;;;;;;;;12.07;70.95;95953.13;5117300;28;1983;-65
2022/10/24 02:09:21;;;;;;;;;;;;;;;12.13;70.43;95955.19;5117559;28;1067;-65
2022/10/24 02:11:47;;;;;;;;;;;;;;;11.77;71.81;95952.41;5117527;28;1015;-65
2022/10/24 02:14:17;;;;;;;;;;;;;;;11.73;72.16;95951.03;5117265;28;1060;-65
2022/10/24 02:16:43;;;;;;;;;;;;;;;11.84;71.62;95948.16;5117376;28;1051;-65
2022/10/24 02:19:10;;;;;;;;;;;;;;;11.83;71.64;95949.13;5117209;28;965;-65
2022/10/24 02:21:51;;;;;;;;;;;;;;;11.93;71.17;95949.09;5117115;28;977;-65
2022/10/24 02:24:39;;;;;;;;;;;;;;;11.91;71.45;95948.41;5117315;28;976;-65
2022/10/24 02:27:08;;;;;;;;;;;;;;;12.01;71.10;95956.38;5117075;28;1906;-65
2022/10/24 02:29:45;;;;;;;;;;;;;;;12.05;70.85;95952.44;5117069;28;1035;-65
2022/10/24 02:32:12;;;;;;;;;;;;;;;12.00;70.56;95957.41;5116886;28;1064;-65
2022/10/24 02:34:39;;;;;;;;;;;;;;;11.97;70.65;95949.66;5117154;28;1008;-65
2022/10/24 02:37:06;;;;;;;;;;;;;;;11.86;70.46;95950.69;5117090;28;1031;-65
2022/10/24 02:39:33;;;;;;;;;;;;;;;11.78;71.17;95953.25;5116856;27;1065;-65
2022/10/24 02:42:01;;;;;;;;;;;;;;;11.85;70.79;95949.81;5116867;28;969;-65
2022/10/24 02:44:28;;;;;;;;;;;;;;;11.89;70.83;95945.91;5116650;28;1015;-65
2022/10/24 02:46:57;;;;;;;;;;;;;;;11.88;70.55;95943.34;5116602;28;1909;-65
2022/10/24 02:49:23;;;;;;;;;;;;;;;11.79;70.69;95946.91;5116711;28;1012;-65
2022/10/24 02:51:51;;;;;;;;;;;;;;;11.84;71.13;95952.66;5098940;28;1301;-65
2022/10/24 02:54:17;;;;;;;;;;;;;;;11.92;71.03;95950.09;5096063;28;1306;-65
2022/10/24 02:56:46;;;;;;;;;;;;;;;11.94;70.87;95952.66;5096219;28;1062;-65
2022/10/24 02:59:12;;;;;;;;;;;;;;;11.98;71.02;95954.03;5095819;28;1111;-65
2022/10/24 03:01:38;;;;;;;;;;;;;;;11.97;70.69;95955.88;5096034;28;1120;-65
2022/10/24 03:04:04;;;;;;;;;;;;;;;11.98;70.81;95957.53;5096175;28;1064;-65
2022/10/24 03:06:30;;;;;;;;;;;;;;;11.87;70.35;95953.19;5096160;28;1910;-65
2022/10/24 03:08:56;;;;;;;;;;;;;;;11.69;70.29;95958.50;5095979;28;974;-65
2022/10/24 03:11:22;;;;;;;;;;;;;;;11.50;71.05;95951.41;5095806;28;1061;-65
2022/10/24 03:13:48;;;;;;;;;;;;;;;11.49;71.61;95948.88;5095637;28;1124;-65
2022/10/24 03:16:14;;;;;;;;;;;;;;;11.60;71.17;95955.88;5095922;28;1043;-65
2022/10/24 03:18:40;;;;;;;;;;;;;;;11.64;71.08;95952.75;5095866;28;1055;-65
2022/10/24 03:21:07;;;;;;;;;;;;;;;11.66;70.79;95944.56;5095636;28;1036;-65
2022/10/24 03:23:33;;;;;;;;;;;;;;;11.63;71.01;95955.56;5095520;28;1085;-65
2022/10/24 03:25:59;;;;;;;;;;;;;;;11.59;70.66;95951.50;5095544;28;1906;-65
2022/10/24 03:28:25;;;;;;;;;;;;;;;11.42;71.21;95953.97;5094236;28;1000;-65
2022/10/24 03:30:52;;;;;;;;;;;;;;;11.28;71.75;95946.41;5094478;28;1016;-65
2022/10/24 03:33:18;;;;;;;;;;;;;;;11.26;72.11;95949.22;5095709;28;1120;-65
2022/10/24 03:35:44;;;;;;;;;;;;;;;11.32;71.75;95954.03;5095571;28;1020;-65
2022/10/24 03:38:10;;;;;;;;;;;;;;;11.40;71.37;95952.41;5095215;28;1057;-65
2022/10/24 03:40:36;;;;;;;;;;;;;;;11.36;72.05;95957.22;5095311;28;1055;-65
2022/10/24 03:43:03;;;;;;;;;;;;;;;11.37;71.89;95950.91;5095182;28;981;-65
2022/10/24 03:45:29;;;;;;;;;;;;;;;11.42;71.79;95953.13;5095215;28;1898;-65
2022/10/24 03:47:55;;;;;;;;;;;;;;;11.20;72.12;95948.97;5095528;28;976;-65
2022/10/24 03:50:22;;;;;;;;;;;;;;;11.23;72.17;95951.34;5100533;28;1291;-65
2022/10/24 03:52:49;;;;;;;;;;;;;;;11.34;71.67;95951.16;5115523;27;1059;-65
2022/10/24 03:55:15;;;;;;;;;;;;;;;11.37;71.48;95945.53;5115105;28;1185;-65
2022/10/24 03:57:41;;;;;;;;;;;;;;;11.42;71.23;95943.28;5115278;28;1020;-65
2022/10/24 04:00:07;;;;;;;;;;;;;;;11.40;71.25;95945.25;5115425;28;1044;-64
2022/10/24 04:02:33;;;;;;;;;;;;;;;11.30;71.41;95947.09;5115399;28;921;-64
2022/10/24 04:05:00;;;;;;;;;;;;;;;11.30;71.54;95944.44;5115099;28;1057;-65
2022/10/24 04:07:26;;;;;;;;;;;;;;;11.33;71.43;95939.63;5115110;28;1905;-65
2022/10/24 04:09:52;;;;;;;;;;;;;;;11.39;71.36;95948.06;5115009;28;1561;-65
2022/10/24 04:12:18;;;;;;;;;;;;;;;11.32;70.83;95947.81;5114809;28;1238;-65
2022/10/24 04:14:44;;;;;;;;;;;;;;;11.22;71.05;95944.31;5115427;28;1039;-65
2022/10/24 04:17:10;;;;;;;;;;;;;;;11.24;71.01;95945.03;5115086;28;1063;-65
2022/10/24 04:19:36;;;;;;;;;;;;;;;11.26;71.37;95951.06;5114923;28;1169;-65
2022/10/24 04:22:02;;;;;;;;;;;;;;;11.28;71.42;95941.06;5114881;28;1137;-65
2022/10/24 04:24:28;;;;;;;;;;;;;;;11.29;71.50;95940.06;5114679;28;1045;-65
2022/10/24 04:26:54;;;;;;;;;;;;;;;11.31;71.63;95946.13;5114082;28;1906;-65
2022/10/24 04:29:20;;;;;;;;;;;;;;;11.39;71.78;95938.19;5114816;28;950;-65
2022/10/24 04:31:46;;;;;;;;;;;;;;;11.46;71.42;95933.13;5114601;28;1132;-65
2022/10/24 04:34:12;;;;;;;;;;;;;;;11.47;71.36;95934.78;5114857;28;1048;-64
2022/10/24 04:36:38;;;;;;;;;;;;;;;11.23;71.38;95946.00;5114622;28;1016;-65
2022/10/24 04:39:05;;;;;;;;;;;;;;;11.12;71.76;95939.84;5114630;28;1012;-65
2022/10/24 04:41:31;;;;;;;;;;;;;;;11.13;71.60;95946.91;5114332;28;1057;-65
2022/10/24 04:43:57;;;;;;;;;;;;;;;11.16;71.56;95943.06;5114645;28;965;-65
2022/10/24 04:46:23;;;;;;;;;;;;;;;11.14;71.33;95951.25;5114269;28;1894;-65
2022/10/24 04:48:49;;;;;;;;;;;;;;;11.05;70.99;95937.88;5114534;28;989;-65
2022/10/24 04:51:15;;;;;;;;;;;;;;;10.92;71.21;95940.88;5101311;28;1275;-65
2022/10/24 04:53:41;;;;;;;;;;;;;;;10.93;71.46;95950.59;5093791;28;1120;-65
2022/10/24 04:56:07;;;;;;;;;;;;;;;10.91;71.43;95949.91;5093796;28;1069;-65
2022/10/24 04:58:33;;;;;;;;;;;;;;;10.90;71.78;95962.41;5093869;28;1045;-65
2022/10/24 05:00:59;;;;;;;;;;;;;;;10.93;71.31;95956.78;5093975;28;1047;-65
2022/10/24 05:03:26;;;;;;;;;;;;;;;10.92;71.64;95959.59;5093671;28;1061;-66
2022/10/24 05:05:52;;;;;;;;;;;;;;;10.94;72.13;95955.78;5093781;28;1999;-65
2022/10/24 05:08:18;;;;;;;;;;;;;;;11.04;71.93;95957.59;5093677;28;972;-65
2022/10/24 05:10:44;;;;;;;;;;;;;;;11.11;71.63;95953.34;5093635;28;999;-65
2022/10/24 05:13:10;;;;;;;;;;;;;;;11.17;71.42;95959.97;5093499;28;1061;-65
2022/10/24 05:15:36;;;;;;;;;;;;;;;11.15;71.64;95973.50;5093770;28;1067;-65
2022/10/24 05:18:03;;;;;;;;;;;;;;;11.12;71.44;95963.94;5093494;28;1116;-65
2022/10/24 05:20:29;;;;;;;;;;;;;;;11.02;72.11;95968.47;5093578;28;977;-64
2022/10/24 05:22:55;;;;;;;;;;;;;;;11.06;72.35;95967.19;5093592;28;1043;-65
2022/10/24 05:25:22;;;;;;;;;;;;;;;11.19;71.79;95976.72;5093409;28;973;-65
2022/10/24 05:27:48;;;;;;;;;;;;;;;11.27;71.55;95969.66;5093299;28;1898;-65
2022/10/24 05:30:14;;;;;;;;;;;;;;;11.27;71.84;95967.00;5093536;28;1032;-65
2022/10/24 05:32:41;;;;;;;;;;;;;;;11.24;72.37;95963.75;5093377;28;936;-64
2022/10/24 05:35:07;;;;;;;;;;;;;;;11.34;72.37;95961.88;5093280;28;1073;-65
2022/10/24 05:37:33;;;;;;;;;;;;;;;11.38;72.27;95957.91;5094425;28;1117;-65
2022/10/24 05:40:00;;;;;;;;;;;;;;;11.48;72.03;95965.94;5097512;28;1077;-65
2022/10/24 05:42:26;;;;;;;;;;;;;;;11.57;72.22;95974.91;5097408;28;1057;-65
2022/10/24 05:44:52;;;;;;;;;;;;;;;11.63;72.36;95982.34;5097696;28;1198;-64
2022/10/24 05:47:18;;;;;;;;;;;;;;;11.85;71.97;95981.97;5097457;28;1985;-65
2022/10/24 05:49:44;;;;;;;;;;;;;;;12.03;71.03;95983.91;5097414;28;1299;-65
2022/10/24 05:52:10;;;;;;;;;;;;;;;12.21;70.51;95982.09;5117713;28;957;-66
2022/10/24 05:54:36;;;;;;;;;;;;;;;12.42;70.10;95983.66;5117495;28;1320;-65
2022/10/24 05:57:02;;;;;;;;;;;;;;;12.58;70.18;95986.50;5117607;28;1065;-65
2022/10/24 05:59:28;;;;;;;;;;;;;;;12.69;70.11;95991.63;5117781;28;1036;-65
2022/10/24 06:01:54;;;;;;;;;;;;;;;12.86;70.18;95981.91;5117580;28;1076;-65
2022/10/24 06:04:20;;;;;;;;;;;;;;;13.12;70.30;95985.59;5117620;28;1012;-66
2022/10/24 06:06:46;;;;;;;;;;;;;;;13.36;69.83;95990.34;5117957;28;1901;-65
2022/10/24 06:09:13;;;;;;;;;;;;;;;13.74;68.42;95993.59;5117417;28;1120;-66
2022/10/24 06:11:39;;;;;;;;;;;;;;;14.07;67.68;95991.88;5117369;28;1044;-65
2022/10/24 06:14:05;;;;;;;;;;;;;;;14.31;66.97;95995.66;5117558;28;1060;-65
2022/10/24 06:16:32;;;;;;;;;;;;;;;14.56;66.73;95992.03;5117448;28;1015;-65
2022/10/24 06:18:59;;;;;;;;;;;;;;;14.71;66.31;95994.94;5117363;28;1016;-65
2022/10/24 06:21:25;;;;;;;;;;;;;;;14.86;65.95;95994.28;5117113;28;993;-65
2022/10/24 06:23:51;;;;;;;;;;;;;;;15.13;64.90;95998.50;5117101;28;1024;-65
2022/10/24 06:26:18;;;;;;;;;;;;;;;15.38;64.18;95991.25;5116927;28;1901;-65
2022/10/24 06:28:44;;;;;;;;;;;;;;;15.47;63.92;96002.84;5117321;28;1047;-66
2022/10/24 06:31:11;;;;;;;;;;;;;;;15.43;64.09;96005.06;5116951;28;1057;-65
2022/10/24 06:33:38;;;;;;;;;;;;;;;15.15;64.81;96005.38;5117136;28;992;-65
2022/10/24 06:36:06;;;;;;;;;;;;;;;14.80;66.50;96007.41;5117009;28;969;-65
2022/10/24 06:38:32;;;;;;;;;;;;;;;14.67;67.84;96000.84;5116935;28;973;-65
2022/10/24 06:41:03;;;;;;;;;;;;;;;14.62;68.28;96014.78;5116228;27;1088;-65
2022/10/24 06:43:29;;;;;;;;;;;;;;;14.64;68.45;96013.63;5117158;28;1067;-65
2022/10/24 06:45:56;;;;;;;;;;;;;;;14.63;68.59;96008.41;5116579;28;1910;-65
2022/10/24 06:48:22;;;;;;;;;;;;;;;14.70;68.12;96013.94;5116253;28;984;-66
2022/10/24 06:50:48;;;;;;;;;;;;;;;14.77;68.09;96013.13;5107615;28;1236;-66
2022/10/24 06:53:14;;;;;;;;;;;;;;;14.97;67.87;96015.50;5095933;28;1435;-67
2022/10/24 06:55:40;;;;;;;;;;;;;;;15.11;67.53;96008.59;5096416;28;1047;-66
2022/10/24 06:58:06;;;;;;;;;;;;;;;15.30;66.99;96013.66;5096342;28;1070;-65
2022/10/24 07:00:32;;;;;;;;;;;;;;;15.26;66.77;96008.78;5096276;28;985;-64
2022/10/24 07:02:59;;;;;;;;;;;;;;;15.34;66.29;96016.84;5096147;28;1059;-65
2022/10/24 07:05:25;;;;;;;;;;;;;;;15.45;66.07;96018.34;5096300;28;1057;-64
2022/10/24 07:07:51;;;;;;;;;;;;;;;15.72;66.38;96015.25;5095888;28;1910;-66
2022/10/24 07:10:18;;;;;;;;;;;;;;;16.07;64.15;96023.97;5094643;28;1028;-66
2022/10/24 07:12:44;;;;;;;;;;;;;;;16.28;64.11;96017.16;5096076;28;1004;-64
2022/10/24 07:15:10;;;;;;;;;;;;;;;16.66;63.32;96018.13;5095919;28;1023;-66
2022/10/24 07:17:39;;;;;;;;;;;;;;;17.07;62.63;96022.44;5095754;28;1056;-66
2022/10/24 07:20:06;;;;;;;;;;;;;;;17.52;59.96;96020.72;5095773;28;1036;-66
2022/10/24 07:22:32;;;;;;;;;;;;;;;17.94;59.82;96017.44;5096136;28;995;-65
2022/10/24 07:24:58;;;;;;;;;;;;;;;18.65;57.66;96019.63;5095588;28;1101;-65
2022/10/24 07:27:24;;;;;;;;;;;;;;;19.09;56.03;96021.38;5095560;28;1906;-65
2022/10/24 07:29:50;;;;;;;;;;;;;;;19.25;56.98;96025.69;5095701;28;975;-65
2022/10/24 07:32:17;;;;;;;;;;;;;;;19.30;54.54;96025.97;5095423;28;1061;-65
2022/10/24 07:34:43;;;;;;;;;;;;;;;19.29;56.95;96021.59;5095446;28;965;-65
2022/10/24 07:37:09;;;;;;;;;;;;;;;19.44;56.61;96017.94;5095282;28;1048;-65
2022/10/24 07:39:36;;;;;;;;;;;;;;;19.39;55.08;96015.84;5095577;28;1059;-65
2022/10/24 07:42:02;;;;;;;;;;;;;;;19.10;56.06;96016.81;5095427;28;1020;-65
2022/10/24 07:44:29;;;;;;;;;;;;;;;19.19;56.41;96017.53;5095139;28;1057;-66
2022/10/24 07:46:55;;;;;;;;;;;;;;;19.32;56.77;96012.22;5095118;28;1987;-65
2022/10/24 07:49:21;;;;;;;;;;;;;;;19.48;56.72;96009.25;5095110;28;992;-66
2022/10/24 07:51:47;;;;;;;;;;;;;;;19.55;55.33;96006.56;5112323;28;1300;-65
2022/10/24 07:54:13;;;;;;;;;;;;;;;19.72;56.11;96009.00;5115155;28;1310;-66
2022/10/24 07:56:39;;;;;;;;;;;;;;;19.80;56.46;96001.56;5115594;28;989;-66
2022/10/24 07:59:05;;;;;;;;;;;;;;;19.91;56.74;96005.63;5115263;28;1057;-66
2022/10/24 08:01:31;;;;;;;;;;;;;;;19.89;56.97;96002.25;5114282;28;1045;-66
2022/10/24 08:03:57;;;;;;;;;;;;;;;19.92;55.16;96003.72;5115233;28;1061;-66
2022/10/24 08:06:27;;;;;;;;;;;;;;;19.96;55.18;96003.16;5115010;28;1913;-66
2022/10/24 08:08:53;;;;;;;;;;;;;;;20.09;56.61;96003.22;5115395;28;1022;-66
2022/10/24 08:11:20;;;;;;;;;;;;;;;20.49;55.08;95999.88;5114959;28;1045;-66
2022/10/24 08:13:47;;;;;;;;;;;;;;;21.33;53.53;96004.09;5115227;27;1031;-66
2022/10/24 08:16:14;;;;;;;;;;;;;;;21.58;50.32;95998.06;5114862;28;1057;-66
2022/10/24 08:18:40;;;;;;;;;;;;;;;21.61;52.73;95998.50;5114993;28;1126;-66
2022/10/24 08:21:11;;;;;;;;;;;;;;;21.93;52.41;95987.78;5114804;28;985;-65
2022/10/24 08:23:39;;;;;;;;;;;;;;;22.42;49.31;95994.63;5114777;28;1132;-65
2022/10/24 08:26:10;;;;;;;;;;;;;;;22.63;49.05;95987.16;5114751;28;1987;-66
2022/10/24 08:28:36;;;;;;;;;;;;;;;22.69;48.62;95983.59;5114831;28;1107;-66
2022/10/24 08:31:06;;;;;;;;;;;;;;;22.70;50.27;95990.72;5114674;28;1128;-66
2022/10/24 08:33:32;;;;;;;;;;;;;;;22.76;49.49;95984.38;5114733;28;1039;-66
2022/10/24 08:36:00;;;;;;;;;;;;;;;23.12;48.89;95985.69;5114898;28;968;-66
2022/10/24 08:38:26;;;;;;;;;;;;;;;23.59;48.31;95980.72;5114492;28;1065;-66
2022/10/24 08:40:52;;;;;;;;;;;;;;;23.96;46.10;95989.03;5114688;28;1068;-67
2022/10/24 08:43:19;;;;;;;;;;;;;;;24.38;45.43;95984.81;5114422;28;1100;-66
2022/10/24 08:45:54;;;;;;;;;;;;;;;24.38;45.60;95974.75;5114421;28;1917;-66
2022/10/24 08:48:26;;;;;;;;;;;;;;;24.52;43.36;95979.00;5114211;28;1036;-66
2022/10/24 08:50:57;;;;;;;;;;;;;;;24.73;43.09;95974.94;5104709;28;1319;-66
2022/10/24 08:57:05;;;;;;;;;;;;;;;26.34;41.52;95975.19;5077135;28;1238;-66
2022/10/24 08:59:34;;;;;;;;;;;;;;;26.93;40.43;95973.16;5092611;28;1096;-66
2022/10/24 09:02:01;;;;;;;;;;;;;;;27.28;41.22;95977.69;5093776;28;1016;-66
2022/10/24 09:04:33;;;;;;;;;;;;;;;27.93;39.50;95970.03;5093771;28;1083;-66
2022/10/24 09:06:59;;;;;;;;;;;;;;;28.51;40.61;95957.63;5093716;28;1914;-67
2022/10/24 09:09:32;;;;;;;;;;;;;;;28.94;36.51;95968.91;5093638;28;1073;-66
2022/10/24 09:12:00;;;;;;;;;;;;;;;28.75;39.58;95955.50;5093459;28;1061;-66
2022/10/24 09:14:31;;;;;;;;;;;;;;;29.23;34.92;95971.47;5093692;28;1009;-66
2022/10/24 09:17:20;;;;;;;;;;;;;;;29.54;35.06;95967.09;5093655;28;1103;-66
2022/10/24 09:19:49;;;;;;;;;;;;;;;30.95;31.94;95961.16;5087873;28;1322;-66
2022/10/24 09:22:16;;;;;;;;;;;;;;;31.13;31.83;95959.81;5093642;28;1032;-67
2022/10/24 09:24:49;;;;;;;;;;;;;;;30.70;31.67;95962.69;5093690;28;1128;-66
2022/10/24 09:27:18;;;;;;;;;;;;;;;32.01;30.43;95960.78;5093494;28;1973;-66
2022/10/24 09:29:44;;;;;;;;;;;;;;;34.21;29.58;95964.47;5093414;28;1057;-67
2022/10/24 09:32:19;;;;;;;;;;;;;;;36.94;26.70;95970.50;5093213;28;1104;-67
2022/10/24 09:34:45;;;;;;;;;;;;;;;39.40;23.68;95988.66;5093361;28;1077;-65
2022/10/24 09:37:31;;;;;;;;;;;;;;;40.70;23.90;95987.00;5093265;28;1041;-65
2022/10/24 09:40:27;;;;;;;;;;;;;;;41.52;20.71;95989.59;5093143;28;1331;-65
2022/10/24 09:43:05;;;;;;;;;;;;;;;41.75;22.12;95982.50;5084503;28;1245;-65
2022/10/24 09:45:38;;;;;;;;;;;;;;;41.83;22.68;95972.34;5093412;28;1049;-65
2022/10/24 09:48:14;;;;;;;;;;;;;;;41.81;23.15;95969.06;5093257;28;1085;-65
2022/10/24 09:50:41;;;;;;;;;;;;;;;40.49;24.70;95956.88;5101210;28;1256;-65
2022/10/24 09:53:17;;;;;;;;;;;;;;;37.37;24.20;95945.03;5113492;28;1061;-65
2022/10/24 09:55:44;;;;;;;;;;;;;;;33.67;30.72;95923.84;5113880;28;964;-64
2022/10/24 09:58:16;;;;;;;;;;;;;;;30.41;31.64;95892.47;5113304;28;1087;-64
2022/10/24 10:00:42;;;;;;;;;;;;;;;28.36;35.31;95881.28;5113581;28;1103;-64
2022/10/24 10:03:34;;;;;;;;;;;;;;;27.29;36.79;95869.53;5113489;28;1069;-64
2022/10/24 10:06:13;;;;;;;;;;;;;;;26.47;38.08;95865.25;5112223;28;1914;-64
2022/10/24 10:08:39;;;;;;;;;;;;;;;25.96;38.80;95855.97;5113681;28;969;-64
2022/10/24 10:11:06;;;;;;;;;;;;;;;25.68;43.38;95854.78;5112325;28;1017;-63
2022/10/24 10:13:37;;;;;;;;;;;;;;;25.47;40.86;95857.03;5113412;28;1234;-64
2022/10/24 10:16:04;;;;;;;;;;;;;;;25.03;42.27;95851.03;5113332;28;1119;-64
2022/10/24 10:18:41;;;;;;;;;;;;;;;24.87;42.86;95854.44;5113483;28;953;-64
2022/10/24 10:21:14;;;;;;;;;;;;;;;24.80;42.54;95856.47;5113528;28;1063;-64
2022/10/24 10:23:42;;;;;;;;;;;;;;;24.62;42.87;95857.34;5114574;28;949;-64
2022/10/24 10:26:17;;;;;;;;;;;;;;;24.53;45.16;95846.75;5117008;27;1910;-64
2022/10/24 10:28:46;;;;;;;;;;;;;;;24.62;44.04;95849.13;5116992;28;1225;-64
2022/10/24 10:31:14;;;;;;;;;;;;;;;24.67;45.23;95841.91;5116884;28;1062;-64
2022/10/24 10:33:40;;;;;;;;;;;;;;;24.62;43.48;95843.66;5117011;28;1064;-64
2022/10/24 10:36:19;;;;;;;;;;;;;;;24.49;44.76;95836.44;5116980;28;1035;-64
2022/10/24 10:38:50;;;;;;;;;;;;;;;24.57;46.92;95830.72;5116944;28;1053;-64
2022/10/24 10:41:35;;;;;;;;;;;;;;;24.65;44.35;95837.75;5116741;28;961;-64
2022/10/24 10:44:14;;;;;;;;;;;;;;;24.68;44.38;95835.38;5116739;28;1050;-64
2022/10/24 10:46:50;;;;;;;;;;;;;;;24.67;43.08;95830.13;5116660;28;1921;-64
2022/10/24 10:49:16;;;;;;;;;;;;;;;24.64;45.25;95825.94;5116689;28;1040;-64
2022/10/24 10:55:28;;;;;;;;;;;;;;;24.74;45.94;95812.56;5045371;28;1137;-65
2022/10/24 10:58:06;;;;;;;;;;;;;;;24.79;44.25;95811.03;5038365;28;1049;-65
2022/10/24 11:00:38;;;;;;;;;;;;;;;24.77;42.99;95804.97;5056052;28;950;-65
2022/10/24 11:03:12;;;;;;;;;;;;;;;24.74;46.61;95798.06;5055677;28;1093;-65
2022/10/24 11:05:44;;;;;;;;;;;;;;;24.75;44.51;95796.97;5055706;28;1120;-65
2022/10/24 11:08:19;;;;;;;;;;;;;;;24.77;45.64;95789.38;5055543;28;1012;-65
2022/10/24 11:11:07;;;;;;;;;;;;;;;24.82;46.66;95789.50;5055538;28;1001;-65
2022/10/24 11:13:36;;;;;;;;;;;;;;;24.77;46.00;95791.28;5055636;28;1021;-64
2022/10/24 11:16:05;;;;;;;;;;;;;;;24.80;46.93;95788.09;5055458;28;974;-65
2022/10/24 11:18:33;;;;;;;;;;;;;;;24.83;46.35;95782.13;5055276;28;1061;-65
2022/10/24 11:21:05;;;;;;;;;;;;;;;24.84;45.82;95776.44;5037421;28;1375;-65
2022/10/24 11:23:36;;;;;;;;;;;;;;;24.83;45.43;95779.41;5055360;28;1016;-65
2022/10/24 11:26:06;;;;;;;;;;;;;;;24.77;44.88;95772.97;5055324;28;1988;-65
2022/10/24 11:28:35;;;;;;;;;;;;;;;24.81;43.79;95774.16;5055272;28;970;-65
2022/10/24 11:31:22;;;;;;;;;;;;;;;24.81;44.11;95771.44;5055050;28;1005;-65
2022/10/24 11:34:00;;;;;;;;;;;;;;;24.83;43.70;95768.47;5055332;28;1001;-65
2022/10/24 11:36:32;;;;;;;;;;;;;;;24.79;45.85;95759.06;5053838;28;1112;-64
2022/10/24 11:39:01;;;;;;;;;;;;;;;24.83;45.73;95757.53;5037407;28;979;-64
2022/10/24 11:41:30;;;;;;;;;;;;;;;24.84;46.38;95742.78;5054820;28;1036;-65
2022/10/24 11:44:00;;;;;;;;;;;;;;;24.85;43.77;95750.78;5037456;28;989;-64
2022/10/24 11:46:31;;;;;;;;;;;;;;;24.90;47.25;95739.09;5037028;28;1903;-65
2022/10/24 11:49:03;;;;;;;;;;;;;;;24.91;44.36;95738.03;5054999;28;1020;-65
2022/10/24 11:51:48;;;;;;;;;;;;;;;24.93;46.74;95727.69;5069241;28;1214;-65
2022/10/24 11:54:24;;;;;;;;;;;;;;;24.90;43.79;95734.47;5074896;28;1120;-64
2022/10/24 11:56:58;;;;;;;;;;;;;;;24.81;45.75;95719.47;5075046;28;1017;-65
2022/10/24 11:59:24;;;;;;;;;;;;;;;24.86;43.86;95710.56;5074790;28;1032;-65
2022/10/24 12:01:53;;;;;;;;;;;;;;;24.92;45.89;95710.44;5074702;28;1061;-64
2022/10/24 12:04:25;;;;;;;;;;;;;;;25.02;45.15;95709.84;5074540;28;1001;-65
2022/10/24 12:06:54;;;;;;;;;;;;;;;25.12;44.56;95701.06;5074735;28;1989;-65
2022/10/24 12:09:38;;;;;;;;;;;;;;;25.09;42.42;95707.00;5074457;28;1131;-65
2022/10/24 12:12:26;;;;;;;;;;;;;;;25.10;42.42;95701.28;5074470;28;1116;-65
2022/10/24 12:15:09;;;;;;;;;;;;;;;25.16;44.11;95696.75;5056653;28;1009;-64
2022/10/24 12:17:40;;;;;;;;;;;;;;;25.13;42.21;95694.50;5056861;28;1048;-64
2022/10/24 12:20:10;;;;;;;;;;;;;;;25.06;42.04;95680.97;5074274;28;1013;-65
2022/10/24 12:22:39;;;;;;;;;;;;;;;25.04;41.86;95679.50;5056326;28;1053;-64
2022/10/24 12:25:25;;;;;;;;;;;;;;;25.13;44.57;95667.97;5074233;28;1127;-65
2022/10/24 12:27:52;;;;;;;;;;;;;;;25.18;44.37;95675.47;5057012;28;1985;-65
2022/10/24 12:30:20;;;;;;;;;;;;;;;25.13;41.61;95670.69;5074045;28;1123;-64
2022/10/24 12:32:46;;;;;;;;;;;;;;;25.13;42.35;95670.69;5074070;28;1108;-64
2022/10/24 12:35:30;;;;;;;;;;;;;;;25.20;40.81;95670.56;5073878;28;1061;-64
2022/10/24 12:37:56;;;;;;;;;;;;;;;25.26;43.40;95668.81;5073932;28;1072;-64
2022/10/24 12:40:41;;;;;;;;;;;;;;;25.28;43.29;95661.19;5074080;28;1040;-64
2022/10/24 12:43:12;;;;;;;;;;;;;;;25.20;41.01;95665.09;5073960;28;1038;-64
2022/10/24 12:45:38;;;;;;;;;;;;;;;25.20;42.32;95664.28;5056287;28;1023;-64
2022/10/24 12:48:12;;;;;;;;;;;;;;;25.15;42.34;95659.50;5073410;28;1906;-64
2022/10/24 12:50:38;;;;;;;;;;;;;;;25.18;42.47;95655.47;5066171;28;1382;-65
2022/10/24 12:53:15;;;;;;;;;;;;;;;25.15;41.82;95659.50;5053966;28;1071;-65
2022/10/24 12:55:41;;;;;;;;;;;;;;;25.17;43.75;95659.28;5053656;28;1098;-65
2022/10/24 12:58:20;;;;;;;;;;;;;;;25.14;42.34;95661.44;5053714;28;1049;-65
2022/10/24 13:01:12;;;;;;;;;;;;;;;25.07;43.97;95655.25;5035907;28;1060;-65
2022/10/24 13:03:38;;;;;;;;;;;;;;;25.04;42.85;95654.88;5016201;28;1277;-65
2022/10/24 13:06:04;;;;;;;;;;;;;;;25.03;45.54;95637.66;5035975;28;1910;-64
2022/10/24 13:08:34;;;;;;;;;;;;;;;25.00;45.58;95642.78;5053561;28;1044;-65
2022/10/24 13:11:20;;;;;;;;;;;;;;;24.99;44.52;95638.38;5053501;28;1076;-64
2022/10/24 13:13:46;;;;;;;;;;;;;;;24.98;44.89;95643.00;5053315;28;1087;-64
2022/10/24 13:16:32;;;;;;;;;;;;;;;24.98;44.40;95633.97;5035672;28;923;-64